createdAt,value
2022-12-04T00:01:11.050Z,17.13
2022-12-04T00:03:38.291Z,17.65
2022-12-04T00:06:04.935Z,20.35
2022-12-04T00:08:31.836Z,17.50
2022-12-04T00:10:58.925Z,16.63
2022-12-04T00:13:26.038Z,17.70
2022-12-04T00:15:53.681Z,17.13
2022-12-04T00:18:20.476Z,15.13
2022-12-04T00:20:47.266Z,16.35
2022-12-04T00:23:13.893Z,18.92
2022-12-04T00:25:41.522Z,16.27
2022-12-04T00:28:10.520Z,17.25
2022-12-04T00:30:41.351Z,16.70
2022-12-04T00:33:07.942Z,16.88
2022-12-04T00:35:34.633Z,17.25
2022-12-04T00:38:01.214Z,16.88
2022-12-04T00:40:27.917Z,16.65
2022-12-04T00:42:54.608Z,16.42
2022-12-04T00:45:21.193Z,16.38
2022-12-04T00:47:47.965Z,17.38
2022-12-04T00:50:14.651Z,18.13
2022-12-04T00:52:41.259Z,17.42
2022-12-04T00:55:08.459Z,17.02
2022-12-04T00:57:35.050Z,16.27
2022-12-04T01:00:01.888Z,17.45
2022-12-04T01:02:30.430Z,17.00
2022-12-04T01:04:57.057Z,15.90
2022-12-04T01:07:23.802Z,18.45
2022-12-04T01:09:50.534Z,16.90
2022-12-04T01:12:20.717Z,15.75
2022-12-04T01:14:47.959Z,17.98
2022-12-04T01:17:14.770Z,18.35
2022-12-04T01:19:41.489Z,16.38
2022-12-04T01:22:08.265Z,16.05
2022-12-04T01:24:34.874Z,19.17
2022-12-04T01:27:01.829Z,17.02
2022-12-04T01:29:28.471Z,15.05
2022-12-04T01:31:55.193Z,17.27
2022-12-04T01:34:21.938Z,17.75
2022-12-04T01:36:48.524Z,16.20
2022-12-04T01:39:15.226Z,18.08
2022-12-04T01:41:41.840Z,17.05
2022-12-04T01:44:14.336Z,17.25
2022-12-04T01:46:42.740Z,16.25
2022-12-04T01:49:17.277Z,14.95
2022-12-04T01:51:50.719Z,18.05
2022-12-04T01:54:30.887Z,17.17
2022-12-04T01:57:07.867Z,17.52
2022-12-04T01:59:41.446Z,15.27
2022-12-04T02:02:12.015Z,15.02
2022-12-04T02:04:40.632Z,16.45
2022-12-04T02:07:07.432Z,15.82
2022-12-04T02:09:35.382Z,15.50
2022-12-04T02:12:35.640Z,16.63
2022-12-04T02:15:18.006Z,16.08
2022-12-04T02:18:10.429Z,15.57
2022-12-04T02:20:49.775Z,16.40
2022-12-04T02:23:53.560Z,17.17
2022-12-04T02:26:36.304Z,15.88
2022-12-04T02:29:32.658Z,16.60
2022-12-04T02:32:20.040Z,16.02
2022-12-04T02:35:09.676Z,17.67
2022-12-04T02:37:40.238Z,14.68
2022-12-04T02:40:35.269Z,16.70
2022-12-04T02:43:16.192Z,15.57
2022-12-04T02:46:07.893Z,16.83
2022-12-04T02:48:38.867Z,16.50
2022-12-04T02:51:08.444Z,16.08
2022-12-04T02:53:40.344Z,16.63
2022-12-04T02:56:12.579Z,16.65
2022-12-04T02:58:57.322Z,16.38
2022-12-04T03:01:31.062Z,18.65
2022-12-04T03:04:24.410Z,17.00
2022-12-04T03:07:06.511Z,16.65
2022-12-04T03:09:51.778Z,15.90
2022-12-04T03:12:39.953Z,15.63
2022-12-04T03:15:19.269Z,15.98
2022-12-04T03:18:00.964Z,14.57
2022-12-04T03:20:29.641Z,16.23
2022-12-04T03:23:03.079Z,16.88
2022-12-04T03:25:37.983Z,16.35
2022-12-04T03:28:11.048Z,17.48
2022-12-04T03:30:49.074Z,16.17
2022-12-04T03:33:18.428Z,17.55
2022-12-04T03:35:49.534Z,17.02
2022-12-04T03:38:27.840Z,15.73
2022-12-04T03:41:01.867Z,16.90
2022-12-04T03:43:36.428Z,16.33
2022-12-04T03:46:12.679Z,15.38
2022-12-04T03:48:47.544Z,16.75
2022-12-04T03:51:38.278Z,17.42
2022-12-04T03:54:21.179Z,17.27
2022-12-04T03:56:58.474Z,17.67
2022-12-04T03:59:38.938Z,16.90
2022-12-04T04:02:10.413Z,16.02
2022-12-04T04:04:40.831Z,17.13
2022-12-04T04:07:24.328Z,16.35
2022-12-04T04:09:56.439Z,16.67
2022-12-04T04:12:31.751Z,17.45
2022-12-04T04:15:36.547Z,15.82
2022-12-04T04:18:21.770Z,17.25
2022-12-04T04:21:17.798Z,18.10
2022-12-04T04:24:07.773Z,16.75
2022-12-04T04:26:42.588Z,15.90
2022-12-04T04:29:10.262Z,16.38
2022-12-04T04:31:53.395Z,17.15
2022-12-04T04:34:32.100Z,16.80
2022-12-04T04:37:06.216Z,16.60
2022-12-04T04:39:47.858Z,16.98
2022-12-04T04:42:23.094Z,17.00
2022-12-04T04:44:53.373Z,15.23
2022-12-04T04:47:47.084Z,16.75
2022-12-04T04:50:15.946Z,17.23
2022-12-04T04:52:47.278Z,17.58
2022-12-04T04:55:16.181Z,18.30
2022-12-04T04:57:42.924Z,16.08
2022-12-04T05:00:15.495Z,16.55
2022-12-04T05:02:42.711Z,17.33
2022-12-04T05:05:10.316Z,16.25
2022-12-04T05:07:36.926Z,17.33
2022-12-04T05:10:05.343Z,16.98
2022-12-04T05:12:31.962Z,17.80
2022-12-04T05:14:58.632Z,16.65
2022-12-04T05:17:25.236Z,16.63
2022-12-04T05:19:55.695Z,16.95
2022-12-04T05:22:27.563Z,16.45
2022-12-04T05:24:54.754Z,16.58
2022-12-04T05:27:22.376Z,17.33
2022-12-04T05:29:51.618Z,18.45
2022-12-04T05:32:18.241Z,17.17
2022-12-04T05:34:48.304Z,17.77
2022-12-04T05:37:15.037Z,17.50
2022-12-04T05:39:41.797Z,17.83
2022-12-04T05:42:08.597Z,16.10
2022-12-04T05:44:35.478Z,17.30
2022-12-04T05:47:02.420Z,15.60
2022-12-04T05:49:30.036Z,16.10
2022-12-04T05:51:56.825Z,16.85
2022-12-04T05:54:23.720Z,16.27
2022-12-04T05:56:50.715Z,15.45
2022-12-04T05:59:17.718Z,15.68
2022-12-04T06:01:44.913Z,15.88
2022-12-04T06:04:11.889Z,15.52
2022-12-04T06:06:39.000Z,15.45
2022-12-04T06:09:07.671Z,16.55
2022-12-04T06:11:37.084Z,15.63
2022-12-04T06:14:06.346Z,15.77
2022-12-04T06:16:35.676Z,15.80
2022-12-04T06:19:05.604Z,17.60
2022-12-04T06:21:36.314Z,15.77
2022-12-04T06:24:03.220Z,16.83
2022-12-04T06:26:29.881Z,14.57
2022-12-04T06:28:58.101Z,15.98
2022-12-04T06:31:27.149Z,15.00
2022-12-04T06:33:55.363Z,14.40
2022-12-04T06:36:22.517Z,14.75
2022-12-04T06:38:50.502Z,13.48
2022-12-04T06:41:19.959Z,13.38
2022-12-04T06:43:46.784Z,13.48
2022-12-04T06:46:16.727Z,13.45
2022-12-04T06:48:43.500Z,12.43
2022-12-04T06:51:15.241Z,12.35
2022-12-04T06:53:42.588Z,12.88
2022-12-04T06:56:12.985Z,13.15
2022-12-04T06:58:39.979Z,12.45
2022-12-04T07:01:09.017Z,12.95
2022-12-04T07:03:36.023Z,12.60
2022-12-04T07:06:18.097Z,11.20
2022-12-04T07:08:46.812Z,11.55
2022-12-04T07:11:14.352Z,10.98
2022-12-04T07:13:41.637Z,11.13
2022-12-04T07:16:11.077Z,12.15
2022-12-04T07:18:37.864Z,11.63
2022-12-04T07:21:09.404Z,11.30
2022-12-04T07:23:36.691Z,10.95
2022-12-04T07:26:08.213Z,10.57
2022-12-04T07:28:36.825Z,11.10
2022-12-04T07:31:08.322Z,11.25
2022-12-04T07:33:35.429Z,10.75
2022-12-04T07:36:05.579Z,11.52
2022-12-04T07:38:33.392Z,12.15
2022-12-04T07:41:00.734Z,10.77
2022-12-04T07:43:29.188Z,10.70
2022-12-04T07:45:56.449Z,11.48
2022-12-04T07:48:23.246Z,11.27
2022-12-04T07:50:50.051Z,10.80
2022-12-04T07:53:16.760Z,10.13
2022-12-04T07:55:43.329Z,10.98
2022-12-04T07:58:09.977Z,11.80
2022-12-04T08:00:36.591Z,11.35
2022-12-04T08:03:03.162Z,11.63
2022-12-04T08:05:29.914Z,10.85
2022-12-04T08:07:56.605Z,11.98
2022-12-04T08:10:23.263Z,10.98
2022-12-04T08:12:50.008Z,12.48
2022-12-04T08:15:16.801Z,12.88
2022-12-04T08:17:43.369Z,11.15
2022-12-04T08:20:10.401Z,11.90
2022-12-04T08:22:37.078Z,11.73
2022-12-04T08:25:03.928Z,12.32
2022-12-04T08:27:30.664Z,11.25
2022-12-04T08:29:57.579Z,11.52
2022-12-04T08:32:24.460Z,11.90
2022-12-04T08:34:55.755Z,11.45
2022-12-04T08:37:22.813Z,12.18
2022-12-04T08:39:49.627Z,11.73
2022-12-04T08:42:16.237Z,12.20
2022-12-04T08:44:42.815Z,12.77
2022-12-04T08:47:09.449Z,11.15
2022-12-04T08:49:36.057Z,12.48
2022-12-04T08:52:02.651Z,11.52
2022-12-04T08:54:34.505Z,12.68
2022-12-04T08:57:03.271Z,11.10
2022-12-04T08:59:29.949Z,11.23
2022-12-04T09:01:56.635Z,12.10
2022-12-04T09:04:23.325Z,11.65
2022-12-04T09:06:50.088Z,11.98
2022-12-04T09:09:16.860Z,14.05
2022-12-04T09:11:46.493Z,12.10
2022-12-04T09:14:13.236Z,12.82
2022-12-04T09:16:39.942Z,13.15
2022-12-04T09:19:06.609Z,12.23
2022-12-04T09:21:33.295Z,11.68
2022-12-04T09:24:00.146Z,12.25
2022-12-04T09:26:29.754Z,12.63
2022-12-04T09:28:58.551Z,12.98
2022-12-04T09:31:25.717Z,11.60
2022-12-04T09:33:52.923Z,12.32
2022-12-04T09:36:20.170Z,14.73
2022-12-04T09:38:49.699Z,13.23
2022-12-04T09:41:58.049Z,13.50
2022-12-04T09:44:38.582Z,12.18
2022-12-04T09:47:24.052Z,13.75
2022-12-04T09:49:55.986Z,13.13
2022-12-04T09:52:50.346Z,11.77
2022-12-04T09:55:31.475Z,13.57
2022-12-04T09:58:02.580Z,12.25
2022-12-04T10:00:33.673Z,13.15
2022-12-04T10:03:14.210Z,11.77
2022-12-04T10:05:56.431Z,12.75
2022-12-04T10:08:33.024Z,12.32
2022-12-04T10:11:22.274Z,11.15
2022-12-04T10:13:57.834Z,12.65
2022-12-04T10:16:28.349Z,11.02
2022-12-04T10:19:07.262Z,13.07
2022-12-04T10:22:15.901Z,12.40
2022-12-04T10:24:51.543Z,12.33
2022-12-04T10:27:48.803Z,11.95
2022-12-04T10:30:31.120Z,11.82
2022-12-04T10:33:03.690Z,11.98
2022-12-04T10:35:32.362Z,12.18
2022-12-04T10:38:04.153Z,12.10
2022-12-04T10:40:55.868Z,10.98
2022-12-04T10:43:43.014Z,11.40
2022-12-04T10:46:22.840Z,12.48
2022-12-04T10:49:12.425Z,12.63
2022-12-04T10:51:41.005Z,12.60
2022-12-04T10:54:21.364Z,11.32
2022-12-04T10:57:03.606Z,13.50
2022-12-04T10:59:30.951Z,12.48
2022-12-04T11:02:22.598Z,12.30
2022-12-04T11:05:07.858Z,12.80
2022-12-04T11:07:47.329Z,13.40
2022-12-04T11:10:43.208Z,11.98
2022-12-04T11:13:12.677Z,13.07
2022-12-04T11:15:50.379Z,11.98
2022-12-04T11:18:18.512Z,12.48
2022-12-04T11:20:50.944Z,13.18
2022-12-04T11:23:18.191Z,12.30
2022-12-04T11:25:50.977Z,12.65
2022-12-04T11:31:18.122Z,13.27
2022-12-04T11:33:49.786Z,12.07
2022-12-04T11:36:28.410Z,11.32
2022-12-04T11:39:16.348Z,11.73
2022-12-04T11:41:43.316Z,10.23
2022-12-04T11:44:26.585Z,11.65
2022-12-04T11:46:59.149Z,10.95
2022-12-04T11:49:27.964Z,10.93
2022-12-04T11:52:18.911Z,12.02
2022-12-04T11:54:51.391Z,11.07
2022-12-04T11:57:42.383Z,10.52
2022-12-04T12:00:16.214Z,10.55
2022-12-04T12:03:20.813Z,10.55
2022-12-04T12:06:03.044Z,10.90
2022-12-04T12:08:59.989Z,11.05
2022-12-04T12:11:35.834Z,11.10
2022-12-04T12:14:16.770Z,10.88
2022-12-04T12:19:47.492Z,11.35
2022-12-04T12:22:31.905Z,12.95
2022-12-04T12:25:04.699Z,10.57
2022-12-04T12:27:48.034Z,10.70
2022-12-04T12:30:22.493Z,11.43
2022-12-04T12:32:55.295Z,11.23
2022-12-04T12:35:35.736Z,11.48
2022-12-04T12:38:09.902Z,11.60
2022-12-04T12:40:42.780Z,10.05
2022-12-04T12:43:21.127Z,11.45
2022-12-04T12:46:02.860Z,10.88
2022-12-04T12:48:58.365Z,10.88
2022-12-04T12:52:00.164Z,10.35
2022-12-04T12:54:51.047Z,10.32
2022-12-04T12:57:42.189Z,10.50
2022-12-04T13:00:18.235Z,10.02
2022-12-04T13:03:01.433Z,10.38
2022-12-04T13:05:40.703Z,9.95
2022-12-04T13:08:49.260Z,9.60
2022-12-04T13:11:23.517Z,9.50
2022-12-04T13:14:03.090Z,10.32
2022-12-04T13:16:41.944Z,10.07
2022-12-04T13:19:13.048Z,10.13
2022-12-04T13:22:02.272Z,11.27
2022-12-04T13:24:40.322Z,8.90
2022-12-04T13:27:17.488Z,9.52
2022-12-04T13:30:14.360Z,9.77
2022-12-04T13:33:05.584Z,10.32
2022-12-04T13:36:03.004Z,10.00
2022-12-04T13:38:58.779Z,11.18
2022-12-04T13:41:27.637Z,9.77
2022-12-04T13:43:55.560Z,9.73
2022-12-04T13:46:35.392Z,10.07
2022-12-04T13:49:20.188Z,10.52
2022-12-04T13:51:49.038Z,11.60
2022-12-04T13:54:15.628Z,11.13
2022-12-04T13:56:47.945Z,10.95
2022-12-04T13:59:30.973Z,10.75
2022-12-04T14:02:04.931Z,11.07
2022-12-04T14:04:53.675Z,11.75
2022-12-04T14:07:37.032Z,12.07
2022-12-04T14:10:14.137Z,11.25
2022-12-04T14:12:49.415Z,12.85
2022-12-04T14:15:25.972Z,12.68
2022-12-04T14:18:02.755Z,14.75
2022-12-04T14:20:32.428Z,13.77
2022-12-04T14:23:36.559Z,14.57
2022-12-04T14:26:05.293Z,14.43
2022-12-04T14:28:34.930Z,14.97
2022-12-04T14:31:21.539Z,16.38
2022-12-04T14:33:58.961Z,15.38
2022-12-04T14:36:33.341Z,14.23
2022-12-04T14:39:33.342Z,17.45
2022-12-04T14:42:15.141Z,15.75
2022-12-04T14:44:44.875Z,14.73
2022-12-04T14:49:53.863Z,14.00
2022-12-04T14:52:49.754Z,13.95
2022-12-04T14:55:48.854Z,13.95
2022-12-04T14:58:29.795Z,13.98
2022-12-04T15:01:01.907Z,14.07
2022-12-04T15:03:32.207Z,14.40
2022-12-04T15:06:08.548Z,13.43
2022-12-04T15:08:35.559Z,13.18
2022-12-04T15:11:24.934Z,13.48
2022-12-04T15:13:51.683Z,13.35
2022-12-04T15:16:22.682Z,13.43
2022-12-04T15:18:58.080Z,13.73
2022-12-04T15:21:40.728Z,12.88
2022-12-04T15:24:20.226Z,14.18
2022-12-04T15:26:48.346Z,11.77
2022-12-04T15:29:22.151Z,14.27
2022-12-04T15:31:56.507Z,12.75
2022-12-04T15:34:36.662Z,12.18
2022-12-04T15:37:12.418Z,13.35
2022-12-04T15:39:39.907Z,12.23
2022-12-04T15:42:28.325Z,13.52
2022-12-04T15:45:02.188Z,12.57
2022-12-04T15:47:40.968Z,13.60
2022-12-04T15:50:13.240Z,12.07
2022-12-04T15:52:56.662Z,13.98
2022-12-04T15:55:25.038Z,15.45
2022-12-04T15:57:56.113Z,13.48
2022-12-04T16:00:25.554Z,12.85
2022-12-04T16:02:52.441Z,11.70
2022-12-04T16:05:22.204Z,12.85
2022-12-04T16:10:35.994Z,12.95
2022-12-04T16:13:05.253Z,13.45
2022-12-04T16:15:40.951Z,14.52
2022-12-04T16:18:10.787Z,12.13
2022-12-04T16:23:05.604Z,12.73
2022-12-04T16:25:32.843Z,13.43
2022-12-04T16:28:00.404Z,13.77
2022-12-04T16:30:33.790Z,16.00
2022-12-04T16:33:00.524Z,13.70
2022-12-04T16:35:27.201Z,14.00
2022-12-04T16:37:53.909Z,14.02
2022-12-04T16:40:20.561Z,13.45
2022-12-04T16:42:47.198Z,14.27
2022-12-04T16:45:48.200Z,15.23
2022-12-04T16:48:15.439Z,14.32
2022-12-04T16:50:42.693Z,14.50
2022-12-04T16:53:17.435Z,16.80
2022-12-04T16:55:46.748Z,12.85
2022-12-04T16:58:13.790Z,12.52
2022-12-04T17:00:43.626Z,12.98
2022-12-04T17:03:30.509Z,13.82
2022-12-04T17:05:58.653Z,12.85
2022-12-04T17:08:25.264Z,13.02
2022-12-04T17:10:52.804Z,11.93
2022-12-04T17:13:21.502Z,12.77
2022-12-04T17:15:48.693Z,13.27
2022-12-04T17:18:20.758Z,13.50
2022-12-04T17:20:48.059Z,13.38
2022-12-04T17:23:14.862Z,10.70
2022-12-04T17:25:41.582Z,15.40
2022-12-04T17:28:08.328Z,13.50
2022-12-04T17:30:36.376Z,12.15
2022-12-04T17:33:04.593Z,13.38
2022-12-04T17:35:31.464Z,14.38
2022-12-04T17:38:03.870Z,14.07
2022-12-04T17:40:32.447Z,13.23
2022-12-04T17:42:59.544Z,15.30
2022-12-04T17:45:26.413Z,68.25
2022-12-04T17:47:53.073Z,31.17
2022-12-04T17:50:19.694Z,20.23
2022-12-04T17:52:46.383Z,16.33
2022-12-04T17:55:13.952Z,18.80
2022-12-04T17:57:40.559Z,30.38
2022-12-04T18:00:08.094Z,21.08
2022-12-04T18:02:34.906Z,19.40
2022-12-04T18:05:01.679Z,44.50
2022-12-04T18:07:28.300Z,18.08
2022-12-04T18:09:55.419Z,13.15
2022-12-04T18:12:22.267Z,18.77
2022-12-04T18:14:48.856Z,17.02
2022-12-04T18:17:17.619Z,16.48
2022-12-04T18:19:44.271Z,20.23
2022-12-04T18:22:11.054Z,15.65
2022-12-04T18:24:37.696Z,14.18
2022-12-04T18:27:05.298Z,23.52
2022-12-04T18:29:31.907Z,20.75
2022-12-04T18:31:58.542Z,12.90
2022-12-04T18:34:25.349Z,14.00
2022-12-04T18:36:52.361Z,13.80
2022-12-04T18:39:21.748Z,15.82
2022-12-04T18:41:49.063Z,12.68
2022-12-04T18:44:17.349Z,14.07
2022-12-04T18:46:43.980Z,12.90
2022-12-04T18:49:10.945Z,13.43
2022-12-04T18:51:46.993Z,12.40
2022-12-04T18:54:21.795Z,26.77
2022-12-04T18:56:48.997Z,16.05
2022-12-04T18:59:18.931Z,22.00
2022-12-04T19:01:46.288Z,88.40
2022-12-04T19:04:16.637Z,31.33
2022-12-04T19:06:45.849Z,59.80
2022-12-04T19:09:18.532Z,24.23
2022-12-04T19:11:46.124Z,28.00
2022-12-04T19:14:21.004Z,28.58
2022-12-04T19:16:50.009Z,28.77
2022-12-04T19:19:17.035Z,25.25
2022-12-04T19:21:44.534Z,24.70
2022-12-04T19:24:11.618Z,24.20
2022-12-04T19:26:38.558Z,24.40
2022-12-04T19:29:07.041Z,25.15
2022-12-04T19:31:35.772Z,26.13
2022-12-04T19:34:03.391Z,28.50
2022-12-04T19:36:31.264Z,25.52
2022-12-04T19:38:58.700Z,25.95
2022-12-04T19:41:29.965Z,26.27
2022-12-04T19:43:58.807Z,26.65
2022-12-04T19:46:28.672Z,22.03
2022-12-04T19:48:58.384Z,20.20
2022-12-04T19:51:25.527Z,19.15
2022-12-04T19:53:53.459Z,19.23
2022-12-04T19:56:25.485Z,19.55
2022-12-04T19:58:53.979Z,17.17
2022-12-04T20:01:25.348Z,22.17
2022-12-04T20:03:52.747Z,18.88
2022-12-04T20:06:21.248Z,19.00
2022-12-04T20:08:57.226Z,18.75
2022-12-04T20:11:25.026Z,36.30
2022-12-04T20:13:55.503Z,56.28
2022-12-04T20:16:24.445Z,26.77
2022-12-04T20:18:53.466Z,27.25
2022-12-04T20:21:21.397Z,45.47
2022-12-04T20:23:50.011Z,34.20
2022-12-04T20:26:28.533Z,21.85
2022-12-04T20:28:56.939Z,24.88
2022-12-04T20:31:24.891Z,19.42
2022-12-04T20:33:54.432Z,40.75
2022-12-04T20:36:23.773Z,37.03
2022-12-04T20:38:52.733Z,20.20
2022-12-04T20:41:20.255Z,19.42
2022-12-04T20:43:48.176Z,18.17
2022-12-04T20:46:26.736Z,19.13
2022-12-04T20:48:53.887Z,18.98
2022-12-04T20:51:27.468Z,19.63
2022-12-04T20:53:55.435Z,17.83
2022-12-04T20:56:24.433Z,17.67
2022-12-04T20:58:52.790Z,19.40
2022-12-04T21:01:19.963Z,17.75
2022-12-04T21:03:47.267Z,19.38
2022-12-04T21:06:20.024Z,18.42
2022-12-04T21:08:53.716Z,19.25
2022-12-04T21:11:21.810Z,19.33
2022-12-04T21:14:07.079Z,19.67
2022-12-04T21:16:33.904Z,19.77
2022-12-04T21:19:01.280Z,18.52
2022-12-04T21:21:27.938Z,20.35
2022-12-04T21:23:54.741Z,20.88
2022-12-04T21:26:22.139Z,20.60
2022-12-04T21:28:48.784Z,19.48
2022-12-04T21:31:15.485Z,19.48
2022-12-04T21:33:42.067Z,20.38
2022-12-04T21:36:09.696Z,18.80
2022-12-04T21:38:38.025Z,17.63
2022-12-04T21:41:07.567Z,19.27
2022-12-04T21:43:36.470Z,18.20
2022-12-04T21:46:09.628Z,18.88
2022-12-04T21:48:37.027Z,21.35
2022-12-04T21:51:13.233Z,20.02
2022-12-04T21:56:22.553Z,22.38
2022-12-04T21:58:49.292Z,20.17
2022-12-04T22:01:18.467Z,20.70
2022-12-04T22:03:45.710Z,21.17
2022-12-04T22:06:12.719Z,21.17
2022-12-04T22:08:41.124Z,24.35
2022-12-04T22:11:09.609Z,23.77
2022-12-04T22:13:37.265Z,27.30
2022-12-04T22:16:06.176Z,46.25
2022-12-04T22:18:33.778Z,24.65
2022-12-04T22:21:03.477Z,24.95
2022-12-04T22:25:56.734Z,23.77
2022-12-04T22:28:23.390Z,27.98
2022-12-04T22:30:50.244Z,26.02
2022-12-04T22:33:16.855Z,23.75
2022-12-04T22:35:43.456Z,24.50
2022-12-04T22:38:10.215Z,25.98
2022-12-04T22:40:37.761Z,24.95
2022-12-04T22:43:04.454Z,25.00
2022-12-04T22:45:31.038Z,25.05
2022-12-04T22:47:57.616Z,26.08
2022-12-04T22:50:24.206Z,24.27
2022-12-04T22:52:50.862Z,24.55
2022-12-04T22:55:17.596Z,25.65
2022-12-04T22:57:44.159Z,25.02
2022-12-04T23:00:11.270Z,25.15
2022-12-04T23:02:37.939Z,24.50
2022-12-04T23:05:04.868Z,25.45
2022-12-04T23:07:31.625Z,24.42
2022-12-04T23:09:58.384Z,28.55
2022-12-04T23:12:25.521Z,27.45
2022-12-04T23:14:52.198Z,29.40
2022-12-04T23:17:18.833Z,24.48
2022-12-04T23:19:45.592Z,25.38
2022-12-04T23:22:12.236Z,26.98
2022-12-04T23:24:38.990Z,26.55
2022-12-04T23:27:05.597Z,24.50
2022-12-04T23:32:19.186Z,24.55
2022-12-04T23:34:46.119Z,24.00
2022-12-04T23:37:12.786Z,24.88
2022-12-04T23:39:39.369Z,25.40
2022-12-04T23:42:06.276Z,24.17
2022-12-04T23:44:32.920Z,24.15
2022-12-04T23:46:59.567Z,20.35
2022-12-04T23:49:26.370Z,20.92
2022-12-04T23:51:53.126Z,23.08
2022-12-04T23:54:19.736Z,22.92
2022-12-04T23:56:46.435Z,23.42
2022-12-04T23:59:13.124Z,22.70
